Time;durP1;ratioP1;P1;durP2;ratioP2;P2;SDS_P1;SDS_P2;PMS_P1;PMS_P2;Temp;Humidity;BMP_temperature;BMP_pressure;BME280_temperature;BME280_humidity;BME280_pressure;Samples;Min_cycle;Max_cycle;Signal;HPM_P1;HPM_P2
2023/01/24 00:01:56;;;;;;;;;;;4.20;99.90;;;;;;5047667;28;19913;-61
2023/01/24 00:04:21;;;;;;;;;;;4.20;99.90;;;;;;5045811;28;19934;-60
2023/01/24 00:06:47;;;;;;;;;;;4.30;99.90;;;;;;5044581;28;19977;-61
2023/01/24 00:09:12;;;;;;;;;;;4.30;99.90;;;;;;5047130;28;19913;-61
2023/01/24 00:11:38;;;;;;;;;;;4.30;99.90;;;;;;5046598;28;19920;-61
2023/01/24 00:14:03;;;;;;;;;;;4.40;99.90;;;;;;5044873;28;19913;-61
2023/01/24 00:16:29;;;;;;;;;;;4.30;99.90;;;;;;5045574;28;19912;-61
2023/01/24 00:18:54;;;;;;;;;;;4.30;99.90;;;;;;5040559;28;19917;-61
2023/01/24 00:21:21;;;;;;;;;;;4.30;99.90;;;;;;5046240;28;19917;-61
2023/01/24 00:23:48;;;;;;;;;;;4.30;99.90;;;;;;5042236;28;19921;-61
2023/01/24 00:26:14;;;;;;;;;;;4.20;99.90;;;;;;5047978;28;19920;-61
2023/01/24 00:28:39;;;;;;;;;;;4.20;99.90;;;;;;5047713;28;19913;-60
2023/01/24 00:31:05;;;;;;;;;;;4.10;99.90;;;;;;5046826;28;19993;-61
2023/01/24 00:33:31;;;;;;;;;;;4.10;99.90;;;;;;5072331;23;19962;-61
2023/01/24 00:35:57;;;;;;;;;;;4.10;99.90;;;;;;5062418;28;19912;-60
2023/01/24 00:38:23;;;;;;;;;;;4.20;99.90;;;;;;5067860;28;19919;-61
2023/01/24 00:40:48;;;;;;;;;;;4.20;99.90;;;;;;5066203;28;19917;-60
2023/01/24 00:43:14;;;;;;;;;;;4.20;99.90;;;;;;5046245;28;19971;-60
2023/01/24 00:45:39;;;;;;;;;;;4.30;99.90;;;;;;5045988;28;19913;-61
2023/01/24 00:48:06;;;;;;;;;;;4.30;99.90;;;;;;5049563;28;19913;-59
2023/01/24 00:50:32;;;;;;;;;;;4.30;99.90;;;;;;5048344;28;19920;-60
2023/01/24 00:52:57;;;;;;;;;;;4.30;99.90;;;;;;5045841;28;19913;-60
2023/01/24 00:55:23;;;;;;;;;;;4.30;99.90;;;;;;5048233;28;19913;-61
2023/01/24 00:57:48;;;;;;;;;;;4.30;99.90;;;;;;5048677;28;19920;-61
2023/01/24 01:00:14;;;;;;;;;;;4.30;99.90;;;;;;5045072;28;19967;-61
2023/01/24 01:02:39;;;;;;;;;;;4.20;99.90;;;;;;5049958;28;19992;-61
2023/01/24 01:05:05;;;;;;;;;;;4.20;99.90;;;;;;5044638;28;20007;-61
2023/01/24 01:07:31;;;;;;;;;;;4.20;99.90;;;;;;5047420;28;19913;-61
2023/01/24 01:09:56;;;;;;;;;;;4.20;99.90;;;;;;5052284;28;20483;-61
2023/01/24 01:12:22;;;;;;;;;;;4.20;99.90;;;;;;5052017;28;19912;-60
2023/01/24 01:14:47;;;;;;;;;;;4.20;99.90;;;;;;5049862;28;19913;-60
2023/01/24 01:17:13;;;;;;;;;;;4.10;99.90;;;;;;5050270;28;19928;-61
2023/01/24 01:19:38;;;;;;;;;;;4.20;99.90;;;;;;5054278;28;19955;-61
2023/01/24 01:22:04;;;;;;;;;;;4.20;99.90;;;;;;5051568;28;20405;-60
2023/01/24 01:24:29;;;;;;;;;;;4.20;99.90;;;;;;5048609;28;20337;-61
2023/01/24 01:26:54;;;;;;;;;;;4.20;99.90;;;;;;5052509;28;19987;-61
2023/01/24 01:29:20;;;;;;;;;;;4.10;99.90;;;;;;5050189;28;19921;-60
2023/01/24 01:31:45;;;;;;;;;;;4.10;99.90;;;;;;5050151;28;19919;-61
2023/01/24 01:34:11;;;;;;;;;;;4.10;99.90;;;;;;5050330;28;19979;-59
2023/01/24 01:36:36;;;;;;;;;;;4.00;99.90;;;;;;5049559;28;19963;-61
2023/01/24 01:39:02;;;;;;;;;;;4.00;99.90;;;;;;5052113;28;20418;-61
2023/01/24 01:41:27;;;;;;;;;;;4.00;99.90;;;;;;5048555;28;19924;-61
2023/01/24 01:46:42;;;;;;;;;;;4.00;99.90;;;;;;5048190;28;19920;-61
2023/01/24 01:49:12;;;;;;;;;;;4.10;99.90;;;;;;5047433;28;19952;-59
2023/01/24 01:51:43;;;;;;;;;;;4.10;99.90;;;;;;5049553;28;20405;-59
2023/01/24 01:54:11;;;;;;;;;;;4.10;99.90;;;;;;5050335;28;19999;-60
2023/01/24 01:56:36;;;;;;;;;;;4.20;99.90;;;;;;5050661;28;20409;-61
2023/01/24 01:59:04;;;;;;;;;;;4.20;99.90;;;;;;5050292;28;19917;-60
2023/01/24 02:01:30;;;;;;;;;;;4.20;99.90;;;;;;5050365;28;19919;-60
2023/01/24 02:04:01;;;;;;;;;;;4.20;99.90;;;;;;5045977;28;19924;-61
2023/01/24 02:06:37;;;;;;;;;;;4.20;99.90;;;;;;5050164;28;19912;-61
2023/01/24 02:09:04;;;;;;;;;;;4.20;99.90;;;;;;5050428;28;20343;-61
2023/01/24 02:11:38;;;;;;;;;;;4.20;99.90;;;;;;5051306;28;19917;-61
2023/01/24 02:16:49;;;;;;;;;;;4.00;99.90;;;;;;5051339;28;19920;-61
2023/01/24 02:19:20;;;;;;;;;;;3.90;99.90;;;;;;5050714;28;19913;-61
2023/01/24 02:21:46;;;;;;;;;;;3.90;99.90;;;;;;5048421;28;19917;-60
2023/01/24 02:24:24;;;;;;;;;;;3.90;99.90;;;;;;5051118;28;20309;-61
2023/01/24 02:26:49;;;;;;;;;;;3.90;99.90;;;;;;5052231;28;20298;-61
2023/01/24 02:29:15;;;;;;;;;;;3.90;99.90;;;;;;5050506;28;19913;-70
2023/01/24 02:32:00;;;;;;;;;;;4.00;99.90;;;;;;5045961;28;19913;-59
2023/01/24 02:34:26;;;;;;;;;;;3.90;99.90;;;;;;5048849;28;19917;-61
2023/01/24 02:36:56;;;;;;;;;;;3.80;99.90;;;;;;5050568;28;19913;-60
2023/01/24 02:39:28;;;;;;;;;;;3.90;99.90;;;;;;5046408;28;20015;-60
2023/01/24 02:41:56;;;;;;;;;;;3.90;99.90;;;;;;5047328;28;19916;-62
2023/01/24 02:44:46;;;;;;;;;;;3.90;99.90;;;;;;5049062;28;19924;-60
2023/01/24 02:47:11;;;;;;;;;;;4.00;99.90;;;;;;5045739;28;19956;-61
2023/01/24 02:49:36;;;;;;;;;;;3.90;99.90;;;;;;5047780;28;19951;-58
2023/01/24 02:54:46;;;;;;;;;;;3.90;99.90;;;;;;5046925;28;20016;-61
2023/01/24 02:59:56;;;;;;;;;;;4.00;99.90;;;;;;5049189;28;19928;-61
2023/01/24 03:02:21;;;;;;;;;;;3.90;99.90;;;;;;5049304;28;19921;-60
2023/01/24 03:04:46;;;;;;;;;;;3.90;99.90;;;;;;5047093;28;19927;-60
2023/01/24 03:07:12;;;;;;;;;;;3.90;99.90;;;;;;5051209;28;20046;-59
2023/01/24 03:09:45;;;;;;;;;;;3.90;99.90;;;;;;5047552;28;19921;-61
2023/01/24 03:36:49;;;;;;;;;;;3.60;99.90;;;;;;5051014;28;19928;-61
2023/01/24 03:41:59;;;;;;;;;;;3.60;99.90;;;;;;5046322;28;20008;-59
2023/01/24 03:44:24;;;;;;;;;;;3.50;99.90;;;;;;5048460;28;20023;-58
2023/01/24 03:46:49;;;;;;;;;;;3.50;99.90;;;;;;5044946;28;20363;-59
2023/01/24 03:49:16;;;;;;;;;;;3.50;99.90;;;;;;5048549;28;19949;-61
2023/01/24 03:54:26;;;;;;;;;;;3.50;99.90;;;;;;5049671;28;19920;-60
2023/01/24 03:56:52;;;;;;;;;;;3.50;99.90;;;;;;5047820;28;19913;-60
2023/01/24 03:59:17;;;;;;;;;;;3.50;99.90;;;;;;5050668;28;19917;-61
2023/01/24 04:01:42;;;;;;;;;;;3.50;99.90;;;;;;5046151;28;19913;-60
2023/01/24 04:04:08;;;;;;;;;;;3.50;99.90;;;;;;5045021;28;20011;-61
2023/01/24 04:06:33;;;;;;;;;;;3.40;99.90;;;;;;5046311;28;19921;-59
2023/01/24 04:08:59;;;;;;;;;;;3.50;99.90;;;;;;5049522;28;20303;-59
2023/01/24 04:11:24;;;;;;;;;;;3.60;99.90;;;;;;5049898;28;19913;-58
2023/01/24 04:13:50;;;;;;;;;;;3.60;99.90;;;;;;5047371;28;19928;-60
2023/01/24 04:16:15;;;;;;;;;;;3.60;99.90;;;;;;5046107;28;19956;-59
2023/01/24 04:18:43;;;;;;;;;;;3.50;99.90;;;;;;5048407;28;19920;-60
2023/01/24 04:21:08;;;;;;;;;;;3.60;99.90;;;;;;5046210;28;20466;-58
2023/01/24 04:23:34;;;;;;;;;;;3.50;99.90;;;;;;5048205;28;19920;-60
2023/01/24 04:26:00;;;;;;;;;;;3.50;99.90;;;;;;5047519;28;19921;-60
2023/01/24 04:28:26;;;;;;;;;;;3.60;99.90;;;;;;5047153;28;19913;-59
2023/01/24 04:30:58;;;;;;;;;;;3.60;99.90;;;;;;5047146;28;20330;-60
2023/01/24 04:33:24;;;;;;;;;;;3.60;99.90;;;;;;5046471;28;19917;-60
2023/01/24 04:35:49;;;;;;;;;;;3.40;99.90;;;;;;5044054;28;19920;-64
2023/01/24 04:38:14;;;;;;;;;;;3.40;99.90;;;;;;5047814;28;20310;-60
2023/01/24 04:40:40;;;;;;;;;;;3.40;99.90;;;;;;5047722;28;19934;-60
2023/01/24 04:43:05;;;;;;;;;;;3.40;99.90;;;;;;5047420;28;19952;-60
2023/01/24 04:45:31;;;;;;;;;;;3.50;99.90;;;;;;5049140;28;19912;-60
2023/01/24 04:47:56;;;;;;;;;;;3.50;99.90;;;;;;5053841;28;19927;-60
2023/01/24 04:50:22;;;;;;;;;;;3.50;99.90;;;;;;5052286;28;19955;-60
2023/01/24 04:52:48;;;;;;;;;;;3.50;99.90;;;;;;5050596;28;19952;-60
2023/01/24 04:55:13;;;;;;;;;;;3.40;99.90;;;;;;5051423;28;19913;-59
2023/01/24 04:57:38;;;;;;;;;;;3.40;99.90;;;;;;5051653;28;19912;-57
2023/01/24 05:00:04;;;;;;;;;;;3.50;99.90;;;;;;5049050;28;19960;-59
2023/01/24 05:02:30;;;;;;;;;;;3.50;99.90;;;;;;5049642;28;19913;-59
2023/01/24 05:04:55;;;;;;;;;;;3.50;99.90;;;;;;5054610;28;19971;-60
2023/01/24 05:07:21;;;;;;;;;;;3.60;99.90;;;;;;5046971;28;20402;-60
2023/01/24 05:09:46;;;;;;;;;;;3.40;99.90;;;;;;5052547;28;20357;-60
2023/01/24 05:12:12;;;;;;;;;;;3.40;99.90;;;;;;5050702;28;19912;-60
2023/01/24 05:14:37;;;;;;;;;;;3.50;99.90;;;;;;5049789;28;19924;-61
2023/01/24 05:17:02;;;;;;;;;;;3.60;99.90;;;;;;5050246;28;19921;-59
2023/01/24 05:19:28;;;;;;;;;;;3.60;99.90;;;;;;5047686;28;19912;-58
2023/01/24 05:21:53;;;;;;;;;;;3.60;99.90;;;;;;5044896;28;19934;-58
2023/01/24 05:24:19;;;;;;;;;;;3.40;99.90;;;;;;5043087;28;19923;-60
2023/01/24 05:26:44;;;;;;;;;;;3.50;99.90;;;;;;5046433;28;19917;-60
2023/01/24 05:29:10;;;;;;;;;;;3.50;99.90;;;;;;5047663;28;19921;-60
2023/01/24 05:31:35;;;;;;;;;;;3.60;99.90;;;;;;5049107;28;19927;-60
2023/01/24 05:34:02;;;;;;;;;;;3.60;99.90;;;;;;5052351;28;19924;-59
2023/01/24 05:36:27;;;;;;;;;;;3.40;99.90;;;;;;5051429;28;19913;-59
2023/01/24 05:38:53;;;;;;;;;;;3.40;99.90;;;;;;5052710;28;19920;-60
2023/01/24 05:41:19;;;;;;;;;;;3.40;99.90;;;;;;5051466;28;20000;-60
2023/01/24 05:43:45;;;;;;;;;;;3.40;99.90;;;;;;5052158;28;19921;-60
2023/01/24 05:46:15;;;;;;;;;;;3.40;99.90;;;;;;5050315;28;19913;-60
2023/01/24 05:48:43;;;;;;;;;;;3.40;99.90;;;;;;5048369;28;20002;-59
2023/01/24 05:51:10;;;;;;;;;;;3.50;99.90;;;;;;5052441;28;19919;-60
2023/01/24 05:53:38;;;;;;;;;;;3.50;99.90;;;;;;5044140;28;21125;-61
2023/01/24 05:56:05;;;;;;;;;;;3.50;99.90;;;;;;5048370;28;19924;-60
2023/01/24 05:58:33;;;;;;;;;;;3.50;99.90;;;;;;5047054;28;19913;-59
2023/01/24 06:00:58;;;;;;;;;;;3.40;99.90;;;;;;5045909;28;19920;-60
2023/01/24 06:03:24;;;;;;;;;;;3.40;99.90;;;;;;5046783;28;19917;-60
2023/01/24 06:05:51;;;;;;;;;;;3.40;99.90;;;;;;5054176;28;19912;-60
2023/01/24 06:08:17;;;;;;;;;;;3.30;99.90;;;;;;5050527;28;19960;-60
2023/01/24 06:10:42;;;;;;;;;;;3.30;99.90;;;;;;5051322;28;20338;-60
2023/01/24 06:13:08;;;;;;;;;;;3.30;99.90;;;;;;5047671;28;19913;-58
2023/01/24 06:15:33;;;;;;;;;;;3.40;99.90;;;;;;5053740;28;19913;-60
2023/01/24 06:17:59;;;;;;;;;;;3.40;99.90;;;;;;5051071;28;20004;-60
2023/01/24 06:20:24;;;;;;;;;;;3.40;99.90;;;;;;5052486;28;19920;-60
2023/01/24 06:22:51;;;;;;;;;;;3.40;99.90;;;;;;5061445;28;20301;-58
2023/01/24 06:25:19;;;;;;;;;;;3.30;99.90;;;;;;5051987;28;19917;-59
2023/01/24 06:27:45;;;;;;;;;;;3.20;99.90;;;;;;5050460;28;19928;-60
2023/01/24 06:30:12;;;;;;;;;;;3.20;99.90;;;;;;5054059;28;19959;-59
2023/01/24 06:32:47;;;;;;;;;;;3.20;99.90;;;;;;5053354;28;19913;-58
2023/01/24 06:37:50;;;;;;;;;;;3.10;99.90;;;;;;5080861;22;20350;-81
2023/01/24 06:40:17;;;;;;;;;;;3.10;99.90;;;;;;5039326;28;19948;-80
2023/01/24 06:42:43;;;;;;;;;;;3.10;99.90;;;;;;5043905;28;19961;-80
2023/01/24 06:45:09;;;;;;;;;;;3.10;99.90;;;;;;5038783;28;19921;-80
2023/01/24 06:47:34;;;;;;;;;;;3.10;99.90;;;;;;5072649;22;19943;-63
2023/01/24 06:50:00;;;;;;;;;;;3.20;99.90;;;;;;5072616;28;19915;-59
2023/01/24 06:52:26;;;;;;;;;;;3.20;99.90;;;;;;5071638;28;20385;-59
2023/01/24 06:54:51;;;;;;;;;;;3.20;99.90;;;;;;5072458;28;20015;-61
2023/01/24 06:57:17;;;;;;;;;;;3.20;99.90;;;;;;5072294;28;20386;-60
2023/01/24 06:59:42;;;;;;;;;;;3.20;99.90;;;;;;5053239;28;20386;-60
2023/01/24 07:02:10;;;;;;;;;;;3.20;99.90;;;;;;5054933;28;19919;-62
2023/01/24 07:04:36;;;;;;;;;;;3.30;99.90;;;;;;5055921;28;20448;-62
2023/01/24 07:07:02;;;;;;;;;;;3.20;99.90;;;;;;5052145;28;19956;-61
2023/01/24 07:09:27;;;;;;;;;;;3.20;99.90;;;;;;5052928;28;19919;-62
2023/01/24 07:11:55;;;;;;;;;;;3.20;99.90;;;;;;5055724;28;19995;-60
2023/01/24 07:14:20;;;;;;;;;;;3.30;99.90;;;;;;5069214;28;19948;-62
2023/01/24 07:16:46;;;;;;;;;;;3.30;99.90;;;;;;5066326;28;19924;-62
2023/01/24 07:19:15;;;;;;;;;;;3.10;99.90;;;;;;5053309;28;19959;-62
2023/01/24 07:21:41;;;;;;;;;;;3.20;99.90;;;;;;5062677;28;19920;-62
2023/01/24 07:24:12;;;;;;;;;;;3.30;99.90;;;;;;5053196;28;19916;-61
2023/01/24 07:26:37;;;;;;;;;;;3.20;99.90;;;;;;5061404;28;19981;-61
2023/01/24 07:29:03;;;;;;;;;;;3.30;99.90;;;;;;5071629;28;20406;-61
2023/01/24 07:31:28;;;;;;;;;;;3.30;99.90;;;;;;5051046;28;20008;-62
2023/01/24 07:33:53;;;;;;;;;;;3.40;99.90;;;;;;5049306;28;19924;-61
2023/01/24 07:36:19;;;;;;;;;;;3.40;99.90;;;;;;5054145;28;19912;-61
2023/01/24 07:38:44;;;;;;;;;;;3.40;99.90;;;;;;5052600;28;19917;-63
2023/01/24 07:41:10;;;;;;;;;;;3.50;99.90;;;;;;5062369;28;20378;-64
2023/01/24 07:43:36;;;;;;;;;;;3.40;99.90;;;;;;5067178;28;20568;-63
2023/01/24 07:46:01;;;;;;;;;;;3.40;99.90;;;;;;5053169;28;19981;-63
2023/01/24 07:48:27;;;;;;;;;;;3.40;99.90;;;;;;5063715;28;20066;-63
2023/01/24 07:50:52;;;;;;;;;;;3.40;99.90;;;;;;5057922;28;20482;-61
2023/01/24 07:53:18;;;;;;;;;;;3.40;99.90;;;;;;5047359;28;20401;-63
2023/01/24 07:55:43;;;;;;;;;;;3.40;99.90;;;;;;5068976;28;19915;-63
2023/01/24 07:58:09;;;;;;;;;;;3.40;99.90;;;;;;5060108;28;20029;-63
2023/01/24 08:00:34;;;;;;;;;;;3.40;99.90;;;;;;5054324;28;19916;-62
2023/01/24 08:03:00;;;;;;;;;;;3.40;99.90;;;;;;5061006;28;19912;-63
2023/01/24 08:05:25;;;;;;;;;;;3.40;99.90;;;;;;5065166;28;19939;-63
2023/01/24 08:07:52;;;;;;;;;;;3.40;99.90;;;;;;5059656;28;19919;-61
2023/01/24 08:10:18;;;;;;;;;;;3.50;99.90;;;;;;5062393;28;19991;-60
2023/01/24 08:12:43;;;;;;;;;;;3.50;99.90;;;;;;5069156;28;19922;-63
2023/01/24 08:15:09;;;;;;;;;;;3.50;99.90;;;;;;5059905;28;19912;-63
2023/01/24 08:17:35;;;;;;;;;;;3.50;99.90;;;;;;5044350;28;19924;-62
2023/01/24 08:20:01;;;;;;;;;;;3.50;99.90;;;;;;5046217;28;19966;-63
2023/01/24 08:22:26;;;;;;;;;;;3.50;99.90;;;;;;5063185;28;20344;-60
2023/01/24 08:24:52;;;;;;;;;;;3.50;99.90;;;;;;5053752;28;19923;-63
2023/01/24 08:27:17;;;;;;;;;;;3.50;99.90;;;;;;5052018;28;20031;-63
2023/01/24 08:29:43;;;;;;;;;;;3.50;99.90;;;;;;5065043;28;20287;-63
2023/01/24 08:32:08;;;;;;;;;;;3.50;99.90;;;;;;5049475;28;19921;-61
2023/01/24 08:34:34;;;;;;;;;;;3.40;99.90;;;;;;5058881;28;19931;-61
2023/01/24 08:36:59;;;;;;;;;;;3.40;99.90;;;;;;5051346;28;19917;-62
2023/01/24 08:39:24;;;;;;;;;;;3.30;99.90;;;;;;5067390;28;20446;-61
2023/01/24 08:41:50;;;;;;;;;;;3.40;99.90;;;;;;5071081;28;19915;-61
2023/01/24 08:44:15;;;;;;;;;;;3.40;99.90;;;;;;5070725;28;20019;-63
2023/01/24 08:46:41;;;;;;;;;;;3.50;99.90;;;;;;5069383;28;19956;-63
2023/01/24 08:49:07;;;;;;;;;;;3.50;99.90;;;;;;5065325;28;19917;-63
2023/01/24 08:51:32;;;;;;;;;;;3.40;99.90;;;;;;5071188;28;19912;-60
2023/01/24 08:53:58;;;;;;;;;;;3.50;99.90;;;;;;5070856;28;19908;-62
2023/01/24 08:56:23;;;;;;;;;;;3.50;99.90;;;;;;5071043;28;19980;-62
2023/01/24 08:58:49;;;;;;;;;;;3.50;99.90;;;;;;5065220;28;20322;-61
2023/01/24 09:01:14;;;;;;;;;;;3.60;99.90;;;;;;5070519;28;19913;-62
2023/01/24 09:03:40;;;;;;;;;;;3.70;99.90;;;;;;5067198;28;19912;-62
2023/01/24 09:06:06;;;;;;;;;;;3.80;99.90;;;;;;5052987;28;19990;-62
2023/01/24 09:08:31;;;;;;;;;;;3.70;99.90;;;;;;5057042;28;19953;-62
2023/01/24 09:10:58;;;;;;;;;;;3.80;99.90;;;;;;5071049;28;19920;-62
2023/01/24 09:13:23;;;;;;;;;;;3.80;99.90;;;;;;5070603;28;19931;-62
2023/01/24 09:15:49;;;;;;;;;;;3.90;99.90;;;;;;5070302;28;20353;-62
2023/01/24 09:18:14;;;;;;;;;;;3.70;99.90;;;;;;5066613;28;19912;-61
2023/01/24 09:20:39;;;;;;;;;;;3.70;99.90;;;;;;5070873;28;19944;-62
2023/01/24 09:23:14;;;;;;;;;;;3.70;99.90;;;;;;5066503;28;20003;-63
2023/01/24 09:25:48;;;;;;;;;;;3.80;99.90;;;;;;5047523;28;19940;-63
2023/01/24 09:28:14;;;;;;;;;;;3.80;99.90;;;;;;5050921;28;20004;-61
2023/01/24 09:30:39;;;;;;;;;;;3.80;99.90;;;;;;5054487;28;20377;-63
2023/01/24 09:33:05;;;;;;;;;;;3.90;99.90;;;;;;5057045;28;19912;-62
2023/01/24 09:35:30;;;;;;;;;;;3.90;99.90;;;;;;5073902;28;19982;-62
2023/01/24 09:37:56;;;;;;;;;;;3.90;99.90;;;;;;5072587;28;19908;-63
2023/01/24 09:40:26;;;;;;;;;;;3.80;99.90;;;;;;5073028;28;19912;-61
2023/01/24 09:42:56;;;;;;;;;;;3.80;99.90;;;;;;5074349;28;19909;-61
2023/01/24 09:45:35;;;;;;;;;;;4.00;99.90;;;;;;5073822;28;20325;-63
2023/01/24 09:48:03;;;;;;;;;;;4.10;99.90;;;;;;5066309;28;19920;-63
2023/01/24 09:50:28;;;;;;;;;;;4.10;99.90;;;;;;5063469;28;20365;-62
2023/01/24 09:52:55;;;;;;;;;;;4.10;99.90;;;;;;5074013;28;19940;-63
2023/01/24 09:55:28;;;;;;;;;;;4.10;99.90;;;;;;5073865;28;19916;-63
2023/01/24 09:58:03;;;;;;;;;;;4.20;99.90;;;;;;5066594;28;19919;-63
2023/01/24 10:00:35;;;;;;;;;;;4.20;99.90;;;;;;5074091;28;19915;-63
2023/01/24 10:03:01;;;;;;;;;;;4.20;99.90;;;;;;5055673;28;20379;-63
2023/01/24 10:05:34;;;;;;;;;;;4.20;99.90;;;;;;5046390;28;19923;-63
2023/01/24 10:08:05;;;;;;;;;;;4.30;99.90;;;;;;5050710;28;20307;-63
2023/01/24 10:10:30;;;;;;;;;;;4.20;99.90;;;;;;5055181;28;20004;-62
2023/01/24 10:12:56;;;;;;;;;;;4.20;99.90;;;;;;5050852;28;20358;-63
2023/01/24 10:15:27;;;;;;;;;;;4.30;99.90;;;;;;5050387;28;19921;-61
2023/01/24 10:18:05;;;;;;;;;;;4.30;99.90;;;;;;5054203;28;20002;-63
2023/01/24 10:20:52;;;;;;;;;;;4.30;99.90;;;;;;5046647;28;19955;-63
2023/01/24 10:23:24;;;;;;;;;;;4.20;99.90;;;;;;5055120;28;20256;-65
2023/01/24 10:25:58;;;;;;;;;;;4.20;99.90;;;;;;5043666;28;19922;-61
2023/01/24 10:28:38;;;;;;;;;;;4.30;99.90;;;;;;5053039;28;19920;-62
2023/01/24 10:31:05;;;;;;;;;;;4.20;99.90;;;;;;5067004;28;19950;-63
2023/01/24 10:33:33;;;;;;;;;;;4.30;99.90;;;;;;5048211;28;19912;-63
2023/01/24 10:35:59;;;;;;;;;;;4.40;99.90;;;;;;5051279;28;19966;-63
2023/01/24 10:38:25;;;;;;;;;;;4.40;99.90;;;;;;5059348;28;19924;-63
2023/01/24 10:40:51;;;;;;;;;;;4.40;99.90;;;;;;5045505;28;19912;-63
2023/01/24 10:43:17;;;;;;;;;;;4.40;99.90;;;;;;5058126;28;19924;-62
2023/01/24 10:45:50;;;;;;;;;;;4.40;99.90;;;;;;5051669;28;19947;-63
2023/01/24 10:48:34;;;;;;;;;;;4.50;99.90;;;;;;5051558;28;19925;-63
2023/01/24 10:51:13;;;;;;;;;;;4.40;99.90;;;;;;5048269;28;19966;-62
2023/01/24 10:53:39;;;;;;;;;;;4.50;99.90;;;;;;5052349;28;19913;-62
2023/01/24 10:56:05;;;;;;;;;;;4.40;99.90;;;;;;5052076;28;19962;-63
2023/01/24 10:58:37;;;;;;;;;;;4.40;99.90;;;;;;5049880;28;19917;-62
2023/01/24 11:01:21;;;;;;;;;;;4.50;99.90;;;;;;5054412;28;19920;-62
2023/01/24 11:03:48;;;;;;;;;;;4.40;99.90;;;;;;5051459;28;19921;-62
2023/01/24 11:06:34;;;;;;;;;;;4.60;99.90;;;;;;5057393;28;19913;-61
2023/01/24 11:09:08;;;;;;;;;;;4.50;99.90;;;;;;5049063;28;20271;-62
2023/01/24 11:11:34;;;;;;;;;;;4.50;99.90;;;;;;5050496;28;19913;-63
2023/01/24 11:14:00;;;;;;;;;;;4.50;99.90;;;;;;5053689;28;19943;-62
2023/01/24 11:16:41;;;;;;;;;;;4.40;99.90;;;;;;5054099;28;19952;-63
2023/01/24 11:19:19;;;;;;;;;;;4.40;99.90;;;;;;5056223;28;19991;-62
2023/01/24 11:21:52;;;;;;;;;;;4.40;99.90;;;;;;5054877;28;19912;-63
2023/01/24 11:24:20;;;;;;;;;;;4.40;99.90;;;;;;5057918;28;19952;-61
2023/01/24 11:26:54;;;;;;;;;;;4.50;99.90;;;;;;5052177;28;19970;-63
2023/01/24 11:29:20;;;;;;;;;;;4.50;99.90;;;;;;5050042;28;20001;-61
2023/01/24 11:31:51;;;;;;;;;;;4.60;99.90;;;;;;5046013;28;19921;-60
2023/01/24 11:34:16;;;;;;;;;;;4.60;99.90;;;;;;5047876;28;19934;-63
2023/01/24 11:36:41;;;;;;;;;;;4.60;99.90;;;;;;5054935;28;19919;-62
2023/01/24 11:39:16;;;;;;;;;;;4.60;99.90;;;;;;5058797;28;19991;-61
2023/01/24 11:41:46;;;;;;;;;;;4.50;99.90;;;;;;5042526;28;20000;-61
2023/01/24 11:44:31;;;;;;;;;;;4.40;99.90;;;;;;5051156;28;19918;-61
2023/01/24 11:47:01;;;;;;;;;;;4.30;99.90;;;;;;5049169;28;20301;-60
2023/01/24 11:49:45;;;;;;;;;;;4.40;99.90;;;;;;5046745;28;19975;-61
2023/01/24 11:52:34;;;;;;;;;;;4.40;99.90;;;;;;5046963;28;19913;-61
2023/01/24 11:55:11;;;;;;;;;;;4.60;99.90;;;;;;5047973;28;20012;-59
2023/01/24 11:57:47;;;;;;;;;;;4.60;99.90;;;;;;5045293;28;19920;-61
2023/01/24 12:00:15;;;;;;;;;;;4.70;99.90;;;;;;5044338;28;19917;-60
2023/01/24 12:02:54;;;;;;;;;;;4.70;99.90;;;;;;5043979;28;20351;-61
2023/01/24 12:05:33;;;;;;;;;;;4.80;99.90;;;;;;5051163;28;19923;-61
2023/01/24 12:08:05;;;;;;;;;;;4.80;99.90;;;;;;5053582;28;20327;-61
2023/01/24 12:10:41;;;;;;;;;;;4.60;99.90;;;;;;5044437;28;19913;-62
2023/01/24 12:13:27;;;;;;;;;;;4.70;99.90;;;;;;5050000;28;19913;-63
2023/01/24 12:16:00;;;;;;;;;;;4.70;99.90;;;;;;5023187;28;19920;-62
2023/01/24 12:18:34;;;;;;;;;;;4.40;99.90;;;;;;5051657;28;19920;-62
2023/01/24 12:21:03;;;;;;;;;;;4.50;99.90;;;;;;5050641;28;20065;-62
2023/01/24 12:23:34;;;;;;;;;;;4.60;99.90;;;;;;5039889;28;19958;-63
2023/01/24 12:26:02;;;;;;;;;;;4.60;99.90;;;;;;5051459;28;19978;-62
2023/01/24 12:28:33;;;;;;;;;;;4.60;99.90;;;;;;5045410;28;19970;-62
2023/01/24 12:30:59;;;;;;;;;;;4.70;99.90;;;;;;5049368;28;19928;-62
2023/01/24 12:33:31;;;;;;;;;;;4.80;99.90;;;;;;5052688;28;20329;-63
2023/01/24 12:36:03;;;;;;;;;;;4.70;99.90;;;;;;5050389;28;19920;-62
2023/01/24 12:38:35;;;;;;;;;;;4.80;99.90;;;;;;5042034;28;19923;-62
2023/01/24 12:41:19;;;;;;;;;;;4.50;99.90;;;;;;5059285;28;20311;-62
2023/01/24 12:43:54;;;;;;;;;;;4.60;99.90;;;;;;5070063;23;19928;-59
2023/01/24 12:46:28;;;;;;;;;;;4.50;99.90;;;;;;5061985;28;19919;-60
2023/01/24 12:49:06;;;;;;;;;;;4.70;99.90;;;;;;5060161;28;19919;-62
2023/01/24 12:52:07;;;;;;;;;;;4.70;99.90;;;;;;5061589;28;19912;-58
2023/01/24 12:54:40;;;;;;;;;;;4.70;99.90;;;;;;5006403;28;20284;-60
2023/01/24 12:57:14;;;;;;;;;;;4.70;99.90;;;;;;5035355;28;19955;-57
2023/01/24 12:59:40;;;;;;;;;;;4.80;99.90;;;;;;5044503;28;20007;-59
2023/01/24 13:02:12;;;;;;;;;;;4.80;99.90;;;;;;5024479;28;20004;-60
2023/01/24 13:05:02;;;;;;;;;;;4.60;99.90;;;;;;5045196;28;19920;-62
2023/01/24 13:07:39;;;;;;;;;;;4.70;99.90;;;;;;5047981;28;20027;-60
2023/01/24 13:10:18;;;;;;;;;;;4.70;99.90;;;;;;5045937;28;20379;-59
2023/01/24 13:12:44;;;;;;;;;;;4.70;99.90;;;;;;5028841;28;19920;-57
2023/01/24 13:15:23;;;;;;;;;;;4.70;99.90;;;;;;5045474;28;19917;-58
2023/01/24 13:17:55;;;;;;;;;;;4.70;99.90;;;;;;5023107;28;19917;-60
2023/01/24 13:20:21;;;;;;;;;;;4.60;99.90;;;;;;5046931;28;19935;-57
2023/01/24 13:22:52;;;;;;;;;;;4.40;99.90;;;;;;5038976;28;19917;-59
2023/01/24 13:25:20;;;;;;;;;;;4.20;99.90;;;;;;5045829;28;19921;-59
2023/01/24 13:28:09;;;;;;;;;;;4.30;99.90;;;;;;5049122;28;20347;-59
2023/01/24 13:30:48;;;;;;;;;;;4.30;99.90;;;;;;5012388;28;20409;-61
2023/01/24 13:33:15;;;;;;;;;;;4.20;99.90;;;;;;5044450;28;19928;-58
2023/01/24 13:35:49;;;;;;;;;;;4.30;99.90;;;;;;5038258;28;20513;-60
2023/01/24 13:38:16;;;;;;;;;;;4.30;99.90;;;;;;5050754;28;19917;-60
2023/01/24 13:40:55;;;;;;;;;;;4.30;99.90;;;;;;5044499;28;20055;-57
2023/01/24 13:43:36;;;;;;;;;;;4.30;99.90;;;;;;5049010;28;20310;-61
2023/01/24 13:46:02;;;;;;;;;;;4.20;99.90;;;;;;5043159;28;19955;-60
2023/01/24 13:48:39;;;;;;;;;;;4.20;99.90;;;;;;5044834;28;19956;-58
2023/01/24 13:51:19;;;;;;;;;;;4.20;99.90;;;;;;5043600;28;19917;-58
2023/01/24 13:54:03;;;;;;;;;;;4.20;99.90;;;;;;5047634;28;20004;-59
2023/01/24 13:56:29;;;;;;;;;;;4.30;99.90;;;;;;5043627;28;19936;-60
2023/01/24 13:58:54;;;;;;;;;;;4.40;99.90;;;;;;5039638;28;19917;-60
2023/01/24 14:01:21;;;;;;;;;;;4.40;99.90;;;;;;5047455;28;20248;-58
2023/01/24 14:03:54;;;;;;;;;;;4.40;99.90;;;;;;5048253;28;20019;-60
2023/01/24 14:06:20;;;;;;;;;;;4.40;99.90;;;;;;5041564;28;19916;-60
2023/01/24 14:08:47;;;;;;;;;;;4.50;99.90;;;;;;5040168;28;19924;-59
2023/01/24 14:11:21;;;;;;;;;;;4.40;99.90;;;;;;5049574;28;19926;-59
2023/01/24 14:13:46;;;;;;;;;;;4.30;99.90;;;;;;5037799;28;19917;-58
2023/01/24 14:16:24;;;;;;;;;;;4.20;99.90;;;;;;5045516;28;20003;-60
2023/01/24 14:19:04;;;;;;;;;;;4.20;99.90;;;;;;5037047;28;19995;-60
2023/01/24 14:21:33;;;;;;;;;;;4.30;99.90;;;;;;5043252;28;20012;-59
2023/01/24 14:24:00;;;;;;;;;;;4.30;99.90;;;;;;5037843;28;20087;-61
2023/01/24 14:26:30;;;;;;;;;;;4.20;99.90;;;;;;5042485;28;19917;-58
2023/01/24 14:28:57;;;;;;;;;;;4.30;99.90;;;;;;5042781;28;20355;-61
2023/01/24 14:31:25;;;;;;;;;;;4.30;99.90;;;;;;5044899;28;19975;-57
2023/01/24 14:33:52;;;;;;;;;;;4.30;99.90;;;;;;5047014;28;20105;-61
2023/01/24 14:36:21;;;;;;;;;;;4.40;99.90;;;;;;5046176;28;19917;-58
2023/01/24 14:38:46;;;;;;;;;;;4.30;99.90;;;;;;5046373;28;20481;-61
2023/01/24 14:41:21;;;;;;;;;;;4.20;99.90;;;;;;5041504;28;19920;-62
2023/01/24 14:43:48;;;;;;;;;;;4.10;99.90;;;;;;5042202;28;19921;-61
2023/01/24 14:46:20;;;;;;;;;;;4.10;99.90;;;;;;5037753;28;19925;-61
2023/01/24 14:48:45;;;;;;;;;;;4.20;99.90;;;;;;5034492;28;19935;-62
2023/01/24 14:51:15;;;;;;;;;;;4.20;99.90;;;;;;5039906;28;21971;-61
2023/01/24 14:53:46;;;;;;;;;;;4.20;99.90;;;;;;5037849;28;19944;-61
2023/01/24 14:56:14;;;;;;;;;;;4.30;99.90;;;;;;5037229;28;20006;-62
2023/01/24 14:58:40;;;;;;;;;;;4.10;99.90;;;;;;5037466;28;19921;-62
2023/01/24 15:01:25;;;;;;;;;;;4.10;99.90;;;;;;5037475;28;19917;-62
2023/01/24 15:03:51;;;;;;;;;;;4.10;99.90;;;;;;5039112;28;19925;-61
2023/01/24 15:06:17;;;;;;;;;;;4.10;99.90;;;;;;5037787;28;19971;-62
2023/01/24 15:08:44;;;;;;;;;;;4.10;99.90;;;;;;5039096;28;19913;-62
2023/01/24 15:11:21;;;;;;;;;;;4.20;99.90;;;;;;5043887;28;20350;-59
2023/01/24 15:13:49;;;;;;;;;;;4.20;99.90;;;;;;5034360;28;19925;-61
2023/01/24 15:16:16;;;;;;;;;;;4.00;99.90;;;;;;5036671;28;20318;-63
2023/01/24 15:18:46;;;;;;;;;;;4.00;99.90;;;;;;5040628;28;19928;-61
2023/01/24 15:21:23;;;;;;;;;;;3.90;99.90;;;;;;5043661;28;19916;-62
2023/01/24 15:23:50;;;;;;;;;;;3.90;99.90;;;;;;5043836;28;19924;-61